Time;durP1;ratioP1;P1;durP2;ratioP2;P2;SDS_P1;SDS_P2;PMS_P1;PMS_P2;Temp;Humidity;BMP_temperature;BMP_pressure;BME280_temperature;BME280_humidity;BME280_pressure;Samples;Min_cycle;Max_cycle;Signal;HPM_P1;HPM_P2
2022/04/27 00:01:22;;;;;;;19.65;13.82;;;;;;;;;;5031736;28;20495;-68
2022/04/27 00:03:48;;;;;;;15.57;12.32;;;;;;;;;;5032317;28;20050;-68
2022/04/27 00:06:15;;;;;;;16.75;13.38;;;;;;;;;;5033312;28;20056;-68
2022/04/27 00:08:42;;;;;;;18.58;13.10;;;;;;;;;;5033214;28;20045;-67
2022/04/27 00:11:08;;;;;;;17.38;13.10;;;;;;;;;;5032811;28;20475;-68
2022/04/27 00:13:35;;;;;;;18.17;14.13;;;;;;;;;;5033360;28;20045;-69
2022/04/27 00:16:02;;;;;;;20.40;14.90;;;;;;;;;;5033029;28;20061;-67
2022/04/27 00:18:29;;;;;;;22.63;14.20;;;;;;;;;;5037842;28;20037;-68
2022/04/27 00:20:55;;;;;;;19.55;14.25;;;;;;;;;;5052506;28;20049;-68
2022/04/27 00:23:25;;;;;;;21.67;15.48;;;;;;;;;;5052695;28;20465;-67
2022/04/27 00:25:51;;;;;;;20.73;15.02;;;;;;;;;;5053003;28;20098;-68
2022/04/27 00:28:18;;;;;;;20.15;15.02;;;;;;;;;;5050414;28;20404;-67
2022/04/27 00:30:45;;;;;;;25.83;16.50;;;;;;;;;;5033586;28;20053;-68
2022/04/27 00:33:11;;;;;;;22.70;15.82;;;;;;;;;;5033124;28;20127;-68
2022/04/27 00:35:38;;;;;;;23.35;16.50;;;;;;;;;;5033013;28;20057;-68
2022/04/27 00:38:04;;;;;;;25.58;17.35;;;;;;;;;;5034365;28;20132;-67
2022/04/27 00:40:31;;;;;;;25.10;16.95;;;;;;;;;;5035197;28;20058;-68
2022/04/27 00:42:58;;;;;;;23.02;16.80;;;;;;;;;;5032213;28;20080;-69
2022/04/27 00:45:25;;;;;;;25.90;18.00;;;;;;;;;;5014886;28;20103;-67
2022/04/27 00:47:51;;;;;;;23.67;17.15;;;;;;;;;;5031913;28;20119;-67
2022/04/27 00:50:18;;;;;;;25.30;17.98;;;;;;;;;;5032338;28;20049;-66
2022/04/27 00:52:45;;;;;;;23.00;16.88;;;;;;;;;;5031284;28;20064;-64
2022/04/27 00:55:11;;;;;;;25.08;17.65;;;;;;;;;;4997585;28;20053;-66
2022/04/27 00:57:46;;;;;;;26.05;17.90;;;;;;;;;;5032056;28;20060;-66
2022/04/27 01:00:14;;;;;;;25.58;17.98;;;;;;;;;;5035221;28;20486;-65
2022/04/27 01:02:42;;;;;;;25.30;17.38;;;;;;;;;;5034952;28;20404;-65
2022/04/27 01:05:11;;;;;;;26.23;18.67;;;;;;;;;;5035033;28;20127;-67
2022/04/27 01:07:39;;;;;;;25.02;18.08;;;;;;;;;;5035393;28;20068;-68
2022/04/27 01:10:07;;;;;;;29.15;18.88;;;;;;;;;;5017465;28;20049;-68
2022/04/27 01:12:34;;;;;;;25.88;18.10;;;;;;;;;;5034823;28;20045;-67
2022/04/27 01:15:01;;;;;;;29.02;19.52;;;;;;;;;;5017566;28;20057;-68
2022/04/27 01:17:27;;;;;;;31.23;19.60;;;;;;;;;;5034774;28;20042;-67
2022/04/27 01:19:54;;;;;;;29.88;19.83;;;;;;;;;;5034582;28;20057;-69
2022/04/27 01:22:20;;;;;;;31.58;20.20;;;;;;;;;;5034838;28;20443;-69
2022/04/27 01:24:49;;;;;;;31.58;19.83;;;;;;;;;;5034669;28;20049;-69
2022/04/27 01:27:15;;;;;;;34.45;20.88;;;;;;;;;;5034536;28;20053;-66
2022/04/27 01:29:42;;;;;;;32.40;20.17;;;;;;;;;;5034384;28;20068;-68
2022/04/27 01:32:10;;;;;;;35.97;22.80;;;;;;;;;;5034474;28;20111;-68
2022/04/27 01:34:37;;;;;;;34.03;21.02;;;;;;;;;;5034335;28;20045;-68
2022/04/27 01:39:49;;;;;;;32.15;21.23;;;;;;;;;;5034504;28;20401;-69
2022/04/27 01:42:16;;;;;;;31.80;20.20;;;;;;;;;;5034181;28;20091;-67
2022/04/27 01:44:42;;;;;;;33.78;20.98;;;;;;;;;;5034974;28;20512;-67
2022/04/27 01:47:09;;;;;;;32.78;21.33;;;;;;;;;;5054638;28;20075;-69
2022/04/27 01:49:36;;;;;;;35.78;22.65;;;;;;;;;;5054270;28;20442;-68
2022/04/27 01:54:48;;;;;;;35.55;23.00;;;;;;;;;;5037316;28;20053;-68
2022/04/27 01:57:14;;;;;;;36.00;21.70;;;;;;;;;;5034106;28;20056;-67
2022/04/27 01:59:41;;;;;;;33.90;21.77;;;;;;;;;;5033825;28;20103;-68
2022/04/27 02:02:09;;;;;;;36.67;22.20;;;;;;;;;;5034033;28;20069;-69
2022/04/27 02:04:39;;;;;;;39.15;23.52;;;;;;;;;;5034190;28;20120;-68
2022/04/27 02:07:06;;;;;;;38.75;23.63;;;;;;;;;;5051930;28;20049;-69
2022/04/27 02:09:33;;;;;;;33.85;21.40;;;;;;;;;;5052996;28;20063;-68
2022/04/27 02:11:59;;;;;;;36.90;21.42;;;;;;;;;;5053991;28;20045;-67
2022/04/27 02:14:26;;;;;;;40.83;24.10;;;;;;;;;;5053606;28;20048;-67
2022/04/27 02:16:53;;;;;;;37.03;23.35;;;;;;;;;;5051991;28;20465;-66
2022/04/27 02:19:21;;;;;;;39.15;24.15;;;;;;;;;;5033542;28;20049;-65
2022/04/27 02:21:48;;;;;;;37.00;23.17;;;;;;;;;;5033250;28;20088;-66
2022/04/27 02:24:16;;;;;;;34.38;22.65;;;;;;;;;;5033403;28;20053;-67
2022/04/27 02:26:42;;;;;;;55.72;33.13;;;;;;;;;;5033962;28;20484;-67
2022/04/27 02:29:09;;;;;;;72.93;38.90;;;;;;;;;;5033642;28;20080;-66
2022/04/27 02:31:36;;;;;;;47.65;28.13;;;;;;;;;;5033315;28;20149;-65
2022/04/27 02:34:03;;;;;;;48.55;26.90;;;;;;;;;;5033335;28;20099;-66
2022/04/27 02:36:29;;;;;;;33.33;21.33;;;;;;;;;;5033521;28;20049;-66
2022/04/27 02:38:56;;;;;;;34.75;21.77;;;;;;;;;;5033334;28;20053;-66
2022/04/27 02:41:23;;;;;;;31.30;20.92;;;;;;;;;;5035300;28;20056;-65
2022/04/27 02:43:50;;;;;;;30.17;20.15;;;;;;;;;;5032728;28;20519;-67
2022/04/27 02:46:17;;;;;;;33.40;21.08;;;;;;;;;;5030542;28;20459;-65
2022/04/27 02:51:48;;;;;;;32.42;20.60;;;;;;;;;;5032383;28;20046;-67
2022/04/27 02:51:48;;;;;;;32.45;20.30;;;;;;;;;;5031607;28;20042;-66
2022/04/27 02:54:16;;;;;;;27.35;18.98;;;;;;;;;;5028845;28;20057;-67
2022/04/27 02:56:42;;;;;;;28.70;20.02;;;;;;;;;;5032785;28;20053;-67
2022/04/27 02:59:09;;;;;;;29.67;20.10;;;;;;;;;;5033079;28;20050;-66
2022/04/27 03:01:36;;;;;;;29.17;17.92;;;;;;;;;;5032428;28;20052;-66
2022/04/27 03:04:02;;;;;;;30.70;20.02;;;;;;;;;;5032674;28;20053;-66
2022/04/27 03:06:29;;;;;;;29.23;19.23;;;;;;;;;;5032762;28;20497;-67
2022/04/27 03:08:56;;;;;;;27.48;18.45;;;;;;;;;;5033278;28;20049;-66
2022/04/27 03:11:22;;;;;;;31.20;19.52;;;;;;;;;;5032408;28;20053;-67
2022/04/27 03:13:50;;;;;;;28.25;18.67;;;;;;;;;;5032730;28;20060;-66
2022/04/27 03:16:16;;;;;;;27.80;19.80;;;;;;;;;;5032532;28;20053;-66
2022/04/27 03:18:43;;;;;;;27.58;19.42;;;;;;;;;;5044867;28;20075;-66
2022/04/27 03:21:10;;;;;;;27.73;18.95;;;;;;;;;;5051684;28;20146;-66
2022/04/27 03:23:37;;;;;;;28.08;18.50;;;;;;;;;;5052374;28;20053;-66
2022/04/27 03:26:04;;;;;;;25.20;18.02;;;;;;;;;;5052497;28;20496;-66
2022/04/27 03:28:30;;;;;;;25.98;19.20;;;;;;;;;;5052197;28;20045;-66
2022/04/27 03:30:57;;;;;;;29.88;19.02;;;;;;;;;;5051976;28;20466;-66
2022/04/27 03:33:24;;;;;;;23.67;16.83;;;;;;;;;;5052035;28;20053;-66
2022/04/27 03:35:51;;;;;;;25.45;17.35;;;;;;;;;;5052157;28;20049;-66
2022/04/27 03:38:18;;;;;;;27.40;18.50;;;;;;;;;;5052312;28;20045;-66
2022/04/27 03:40:48;;;;;;;29.58;19.58;;;;;;;;;;5051957;28;20048;-67
2022/04/27 03:43:15;;;;;;;28.38;19.77;;;;;;;;;;5052034;28;20045;-66
2022/04/27 03:45:41;;;;;;;26.42;18.30;;;;;;;;;;5051967;28;20072;-66
2022/04/27 03:48:08;;;;;;;26.63;17.90;;;;;;;;;;5052682;28;20056;-67
2022/04/27 03:50:35;;;;;;;26.58;18.38;;;;;;;;;;5052252;28;20060;-66
2022/04/27 03:53:03;;;;;;;30.13;19.08;;;;;;;;;;5046761;28;20484;-66
2022/04/27 03:55:33;;;;;;;28.95;19.67;;;;;;;;;;5052006;28;20053;-66
2022/04/27 03:58:03;;;;;;;26.20;19.02;;;;;;;;;;5051938;28;20060;-66
2022/04/27 04:00:30;;;;;;;28.23;19.80;;;;;;;;;;5051614;28;20057;-67
2022/04/27 04:03:03;;;;;;;28.83;19.15;;;;;;;;;;5051806;28;20053;-66
2022/04/27 04:05:30;;;;;;;29.90;18.95;;;;;;;;;;5051874;28;20140;-67
2022/04/27 04:07:57;;;;;;;29.33;19.50;;;;;;;;;;5051745;28;20049;-67
2022/04/27 04:10:24;;;;;;;32.80;20.27;;;;;;;;;;5051866;28;20052;-67
2022/04/27 04:12:50;;;;;;;30.25;19.05;;;;;;;;;;5051345;28;20053;-67
2022/04/27 04:15:17;;;;;;;28.90;18.80;;;;;;;;;;5051631;28;20052;-66
2022/04/27 04:17:47;;;;;;;31.00;19.63;;;;;;;;;;5051596;28;20045;-66
2022/04/27 04:20:17;;;;;;;31.00;19.38;;;;;;;;;;5051580;28;20041;-66
2022/04/27 04:22:44;;;;;;;32.45;20.52;;;;;;;;;;5031815;28;20490;-65
2022/04/27 04:30:42;;;;;;;33.85;21.27;;;;;;;;;;5031233;28;20054;-67
2022/04/27 04:33:09;;;;;;;31.60;20.90;;;;;;;;;;5035223;28;20053;-66
2022/04/27 04:35:36;;;;;;;31.83;20.55;;;;;;;;;;5035592;28;20443;-67
2022/04/27 04:38:06;;;;;;;31.33;20.00;;;;;;;;;;5035604;28;20049;-67
2022/04/27 04:40:33;;;;;;;30.20;20.75;;;;;;;;;;5035687;28;20056;-67
2022/04/27 04:43:00;;;;;;;29.52;20.05;;;;;;;;;;5035343;28;20050;-65
2022/04/27 04:45:26;;;;;;;30.08;19.70;;;;;;;;;;5035272;28;20049;-67
2022/04/27 04:47:53;;;;;;;32.83;21.48;;;;;;;;;;5035328;28;20049;-66
2022/04/27 04:50:20;;;;;;;31.58;20.80;;;;;;;;;;5035162;28;20136;-67
2022/04/27 04:52:47;;;;;;;32.45;21.42;;;;;;;;;;5035308;28;20061;-66
2022/04/27 04:55:14;;;;;;;32.42;19.90;;;;;;;;;;5035208;28;20056;-67
2022/04/27 04:57:40;;;;;;;35.25;20.90;;;;;;;;;;5035300;28;20492;-66
2022/04/27 05:00:09;;;;;;;33.10;21.15;;;;;;;;;;5035041;28;20045;-67
2022/04/27 05:02:36;;;;;;;34.53;21.45;;;;;;;;;;5034828;28;20053;-66
2022/04/27 05:05:03;;;;;;;32.85;20.80;;;;;;;;;;5034945;28;20053;-66
2022/04/27 05:07:31;;;;;;;33.13;20.40;;;;;;;;;;5035516;28;20123;-65
2022/04/27 05:09:58;;;;;;;34.72;21.77;;;;;;;;;;5034875;28;20049;-67
2022/04/27 05:12:25;;;;;;;32.17;21.10;;;;;;;;;;5034602;28;20088;-67
2022/04/27 05:14:52;;;;;;;34.90;20.75;;;;;;;;;;5034832;28;20053;-67
2022/04/27 05:17:19;;;;;;;36.42;22.25;;;;;;;;;;5034869;28;20058;-66
2022/04/27 05:19:45;;;;;;;36.40;20.77;;;;;;;;;;5034718;28;20049;-67
2022/04/27 05:22:12;;;;;;;35.70;21.50;;;;;;;;;;5034907;28;20052;-67
2022/04/27 05:24:39;;;;;;;34.00;21.80;;;;;;;;;;5034769;28;20049;-66
2022/04/27 05:27:05;;;;;;;32.30;21.13;;;;;;;;;;5034686;28;20107;-66
2022/04/27 05:32:17;;;;;;;32.42;20.42;;;;;;;;;;5034376;28;20058;-67
2022/04/27 05:34:44;;;;;;;35.70;21.88;;;;;;;;;;5034417;28;20053;-67
2022/04/27 05:37:10;;;;;;;36.85;21.90;;;;;;;;;;5017235;28;20060;-66
2022/04/27 05:39:37;;;;;;;33.70;22.00;;;;;;;;;;5034298;28;20484;-66
2022/04/27 05:42:04;;;;;;;32.55;20.63;;;;;;;;;;5034225;28;20136;-66
2022/04/27 05:44:31;;;;;;;32.35;20.75;;;;;;;;;;5030813;28;20145;-67
2022/04/27 05:46:58;;;;;;;32.78;19.60;;;;;;;;;;5030429;28;20061;-66
2022/04/27 05:49:25;;;;;;;31.80;21.25;;;;;;;;;;5031295;28;20048;-69
2022/04/27 05:51:52;;;;;;;31.88;20.10;;;;;;;;;;5033952;28;20080;-65
2022/04/27 05:54:19;;;;;;;29.73;18.42;;;;;;;;;;5034057;28;20049;-68
2022/04/27 05:56:45;;;;;;;31.42;19.80;;;;;;;;;;5034111;28;20049;-65
2022/04/27 05:59:12;;;;;;;28.40;19.33;;;;;;;;;;5033728;28;20411;-69
2022/04/27 06:01:39;;;;;;;28.63;19.20;;;;;;;;;;5033718;28;20057;-68
2022/04/27 06:04:06;;;;;;;30.05;18.98;;;;;;;;;;5033911;28;20104;-68
2022/04/27 06:06:33;;;;;;;30.25;19.10;;;;;;;;;;5034007;28;20064;-69
2022/04/27 06:09:00;;;;;;;28.38;18.85;;;;;;;;;;5033917;28;20068;-70
2022/04/27 06:11:26;;;;;;;27.45;18.65;;;;;;;;;;5033400;28;20057;-69
2022/04/27 06:13:53;;;;;;;28.33;19.30;;;;;;;;;;5033594;28;20057;-68
2022/04/27 06:16:22;;;;;;;30.00;20.45;;;;;;;;;;5034023;28;20049;-68
2022/04/27 06:18:49;;;;;;;26.27;18.17;;;;;;;;;;5033939;28;20049;-69
2022/04/27 06:21:17;;;;;;;28.13;19.55;;;;;;;;;;5033464;28;20397;-69
2022/04/27 06:23:44;;;;;;;26.73;18.42;;;;;;;;;;5033548;28;20057;-69
2022/04/27 06:26:11;;;;;;;23.15;16.65;;;;;;;;;;5033425;28;20049;-69
2022/04/27 06:28:38;;;;;;;22.98;17.08;;;;;;;;;;5033439;28;20654;-68
2022/04/27 06:31:04;;;;;;;21.52;14.90;;;;;;;;;;5033111;28;20064;-68
2022/04/27 06:33:31;;;;;;;21.35;15.18;;;;;;;;;;5033397;28;20057;-67
2022/04/27 06:36:01;;;;;;;19.73;14.45;;;;;;;;;;5033755;28;20053;-67
2022/04/27 06:38:27;;;;;;;21.00;14.20;;;;;;;;;;5033790;28;20053;-67
2022/04/27 06:41:03;;;;;;;20.80;13.98;;;;;;;;;;5032843;28;20081;-69
2022/04/27 06:43:30;;;;;;;17.20;12.77;;;;;;;;;;5033603;28;20049;-67
2022/04/27 06:45:59;;;;;;;16.55;12.45;;;;;;;;;;5033353;28;20083;-68
2022/04/27 06:48:27;;;;;;;15.63;11.63;;;;;;;;;;5020336;28;20041;-70
2022/04/27 06:50:55;;;;;;;13.45;10.75;;;;;;;;;;5003720;28;20456;-67
2022/04/27 06:53:22;;;;;;;15.48;11.05;;;;;;;;;;5016693;28;20053;-71
2022/04/27 06:55:50;;;;;;;15.95;10.65;;;;;;;;;;5020133;28;20057;-71
2022/04/27 06:58:17;;;;;;;14.05;11.02;;;;;;;;;;5021752;28;20045;-71
2022/04/27 07:00:44;;;;;;;16.08;10.60;;;;;;;;;;5022434;28;20058;-72
2022/04/27 07:03:15;;;;;;;13.45;9.88;;;;;;;;;;5017537;28;20144;-71
2022/04/27 07:05:42;;;;;;;15.02;10.30;;;;;;;;;;5019029;28;20046;-71
2022/04/27 07:08:09;;;;;;;12.15;9.95;;;;;;;;;;5004599;28;20050;-67
2022/04/27 07:10:36;;;;;;;13.95;10.13;;;;;;;;;;5021560;28;20043;-69
2022/04/27 07:13:05;;;;;;;10.77;8.73;;;;;;;;;;5017492;28;20053;-67
2022/04/27 07:15:32;;;;;;;12.00;9.15;;;;;;;;;;5019011;28;20056;-69
2022/04/27 07:17:59;;;;;;;13.93;9.30;;;;;;;;;;5017502;28;20049;-68
2022/04/27 07:20:26;;;;;;;11.60;8.75;;;;;;;;;;5019634;28;20103;-69
2022/04/27 07:22:55;;;;;;;12.65;8.27;;;;;;;;;;5020740;28;20072;-69
2022/04/27 07:25:22;;;;;;;10.52;8.25;;;;;;;;;;5021254;28;20049;-69
2022/04/27 07:27:48;;;;;;;9.65;7.55;;;;;;;;;;4975505;28;20057;-69
2022/04/27 07:30:15;;;;;;;10.27;8.40;;;;;;;;;;4999914;28;20507;-67
2022/04/27 07:32:44;;;;;;;11.25;8.98;;;;;;;;;;4997900;28;20050;-67
2022/04/27 07:35:11;;;;;;;10.60;8.35;;;;;;;;;;5005335;28;20046;-68
2022/04/27 07:37:38;;;;;;;9.85;8.35;;;;;;;;;;4998993;28;20621;-67
2022/04/27 07:40:12;;;;;;;11.13;8.73;;;;;;;;;;5001751;28;20042;-69
2022/04/27 07:42:39;;;;;;;9.25;7.60;;;;;;;;;;5000955;28;20493;-65
2022/04/27 07:45:06;;;;;;;11.40;8.55;;;;;;;;;;5000366;28;20072;-66
2022/04/27 07:47:43;;;;;;;13.00;8.57;;;;;;;;;;5003291;28;20054;-66
2022/04/27 07:50:12;;;;;;;10.93;9.02;;;;;;;;;;4999508;28;20047;-65
2022/04/27 07:52:38;;;;;;;13.98;8.93;;;;;;;;;;4998107;28;20050;-65
2022/04/27 07:55:06;;;;;;;9.63;7.63;;;;;;;;;;4998910;28;20050;-68
2022/04/27 07:57:33;;;;;;;9.90;7.97;;;;;;;;;;4998018;28;20124;-67
2022/04/27 08:00:01;;;;;;;9.40;7.60;;;;;;;;;;5001867;28;20039;-67
2022/04/27 08:02:27;;;;;;;11.85;7.65;;;;;;;;;;4996780;28;20046;-67
2022/04/27 08:04:54;;;;;;;8.90;6.95;;;;;;;;;;4999228;28;20058;-66
2022/04/27 08:07:21;;;;;;;10.25;8.18;;;;;;;;;;4997371;28;20058;-67
2022/04/27 08:09:48;;;;;;;10.77;8.65;;;;;;;;;;4998693;28;20054;-68
2022/04/27 08:12:14;;;;;;;10.48;8.02;;;;;;;;;;5044665;23;20108;-66
2022/04/27 08:14:41;;;;;;;10.40;7.25;;;;;;;;;;5018253;28;20053;-65
2022/04/27 08:17:08;;;;;;;9.43;7.68;;;;;;;;;;5016017;28;20050;-72
2022/04/27 08:19:35;;;;;;;9.85;8.43;;;;;;;;;;4991832;28;20608;-69
2022/04/27 08:22:02;;;;;;;10.48;7.68;;;;;;;;;;5005701;28;20051;-69
2022/04/27 08:24:29;;;;;;;9.20;7.60;;;;;;;;;;4996682;28;20125;-68
2022/04/27 08:26:56;;;;;;;8.68;6.72;;;;;;;;;;4973222;28;20043;-66
2022/04/27 08:29:22;;;;;;;8.35;6.68;;;;;;;;;;4996671;28;20082;-65
2022/04/27 08:31:53;;;;;;;9.23;7.20;;;;;;;;;;4997770;28;20096;-66
2022/04/27 08:34:19;;;;;;;5.80;5.20;;;;;;;;;;4997104;28;20061;-66
2022/04/27 08:36:46;;;;;;;8.85;6.05;;;;;;;;;;4998722;28;20054;-67
2022/04/27 08:39:13;;;;;;;7.80;6.60;;;;;;;;;;4978795;28;20058;-66
2022/04/27 08:41:40;;;;;;;8.30;6.05;;;;;;;;;;4999204;28;20140;-66
2022/04/27 08:44:07;;;;;;;7.63;5.88;;;;;;;;;;4998872;28;20493;-66
2022/04/27 08:46:34;;;;;;;6.30;5.70;;;;;;;;;;4983083;28;20045;-68
2022/04/27 08:49:01;;;;;;;7.63;6.22;;;;;;;;;;4967487;28;20505;-68
2022/04/27 08:51:31;;;;;;;6.10;5.28;;;;;;;;;;4990001;28;20046;-68
2022/04/27 08:53:58;;;;;;;7.40;5.00;;;;;;;;;;4974872;28;21106;-68
2022/04/27 08:56:25;;;;;;;5.18;4.68;;;;;;;;;;4981809;28;20504;-68
2022/04/27 08:58:51;;;;;;;5.15;4.22;;;;;;;;;;4997771;28;20057;-69
2022/04/27 09:01:18;;;;;;;6.45;4.70;;;;;;;;;;4998789;28;20042;-64
2022/04/27 09:03:46;;;;;;;4.75;4.13;;;;;;;;;;5017265;28;20095;-66
2022/04/27 09:06:15;;;;;;;5.07;4.18;;;;;;;;;;5017663;28;20046;-67
2022/04/27 09:08:43;;;;;;;5.15;3.88;;;;;;;;;;5002533;28;20050;-67
2022/04/27 09:11:28;;;;;;;6.65;4.55;;;;;;;;;;5008579;28;20545;-66
2022/04/27 09:14:02;;;;;;;4.55;3.80;;;;;;;;;;5019326;28;20054;-67
2022/04/27 09:22:12;;;;;;;5.05;4.30;;;;;;;;;;5016843;28;20045;-67
2022/04/27 09:24:52;;;;;;;4.43;3.92;;;;;;;;;;4983516;28;20049;-66
2022/04/27 09:27:19;;;;;;;4.78;4.32;;;;;;;;;;5005954;28;20049;-67
2022/04/27 09:29:58;;;;;;;5.05;4.55;;;;;;;;;;5021362;28;20052;-67
2022/04/27 09:32:25;;;;;;;4.97;4.25;;;;;;;;;;5002304;28;20103;-67
2022/04/27 09:34:52;;;;;;;5.78;3.78;;;;;;;;;;4989192;28;20056;-67
2022/04/27 09:37:21;;;;;;;6.88;4.90;;;;;;;;;;5024762;28;20060;-67
2022/04/27 09:40:02;;;;;;;4.43;4.03;;;;;;;;;;4995718;28;20042;-68
2022/04/27 09:42:30;;;;;;;6.40;4.03;;;;;;;;;;5007290;28;20048;-67
2022/04/27 09:45:17;;;;;;;5.32;4.40;;;;;;;;;;4986061;28;20053;-67
2022/04/27 09:47:53;;;;;;;5.18;4.22;;;;;;;;;;5016705;28;20500;-67
2022/04/27 09:50:20;;;;;;;5.78;4.68;;;;;;;;;;5007095;28;20056;-66
2022/04/27 09:52:47;;;;;;;4.22;3.83;;;;;;;;;;4988190;28;20533;-68
2022/04/27 09:55:13;;;;;;;4.30;3.33;;;;;;;;;;5006234;28;20045;-66
2022/04/27 09:57:46;;;;;;;5.28;4.28;;;;;;;;;;4998186;28;20049;-67
2022/04/27 10:00:14;;;;;;;5.05;3.65;;;;;;;;;;5008814;28;20045;-67
2022/04/27 10:02:43;;;;;;;3.70;3.30;;;;;;;;;;4997284;28;20045;-66
2022/04/27 10:05:10;;;;;;;3.72;3.17;;;;;;;;;;5019546;28;20579;-67
2022/04/27 10:07:37;;;;;;;3.65;3.10;;;;;;;;;;4998092;28;20045;-67
2022/04/27 10:10:04;;;;;;;3.47;3.15;;;;;;;;;;4985272;28;20054;-67
2022/04/27 10:12:35;;;;;;;3.90;3.50;;;;;;;;;;4981831;28;20549;-69
2022/04/27 10:15:02;;;;;;;4.63;3.75;;;;;;;;;;5011403;28;20057;-67
2022/04/27 10:17:29;;;;;;;5.32;3.22;;;;;;;;;;5003057;28;20055;-68
2022/04/27 10:19:56;;;;;;;3.80;3.28;;;;;;;;;;5022695;28;20050;-67
2022/04/27 10:22:33;;;;;;;3.50;3.20;;;;;;;;;;5002811;28;20492;-67
2022/04/27 10:25:07;;;;;;;3.30;3.00;;;;;;;;;;4997755;28;20049;-67
2022/04/27 10:27:40;;;;;;;4.93;3.13;;;;;;;;;;4986408;28;20049;-67
2022/04/27 10:30:10;;;;;;;4.00;3.58;;;;;;;;;;5010245;28;20054;-68
2022/04/27 10:32:40;;;;;;;4.82;3.38;;;;;;;;;;4986879;28;20098;-69
2022/04/27 10:35:21;;;;;;;3.78;3.38;;;;;;;;;;5019071;28;20046;-66
2022/04/27 10:37:50;;;;;;;3.70;3.40;;;;;;;;;;5001305;28;20046;-67
2022/04/27 10:40:33;;;;;;;3.38;3.08;;;;;;;;;;5007149;28;20052;-67
2022/04/27 10:43:06;;;;;;;3.90;3.50;;;;;;;;;;4999374;28;20050;-66
2022/04/27 10:45:38;;;;;;;3.70;3.40;;;;;;;;;;5018168;28;20045;-67
2022/04/27 10:48:16;;;;;;;3.95;3.20;;;;;;;;;;4976340;28;20053;-66
2022/04/27 10:51:01;;;;;;;2.65;2.42;;;;;;;;;;4983295;28;20046;-67
2022/04/27 10:53:29;;;;;;;4.80;2.53;;;;;;;;;;5002191;28;20056;-67
2022/04/27 10:56:25;;;;;;;3.53;3.22;;;;;;;;;;4990314;28;20056;-66
2022/04/27 10:58:52;;;;;;;3.33;3.03;;;;;;;;;;5000792;28;20489;-67
2022/04/27 11:01:24;;;;;;;3.30;3.00;;;;;;;;;;4997883;28;20046;-66
2022/04/27 11:04:00;;;;;;;4.65;4.20;;;;;;;;;;5009973;28;20053;-66
2022/04/27 11:06:30;;;;;;;3.38;3.08;;;;;;;;;;4998879;28;20049;-64
2022/04/27 11:09:24;;;;;;;3.45;3.00;;;;;;;;;;4999538;28;20060;-65
2022/04/27 11:11:55;;;;;;;3.85;3.30;;;;;;;;;;4977719;28;20057;-65
2022/04/27 11:14:29;;;;;;;5.93;3.40;;;;;;;;;;5010753;28;20053;-65
2022/04/27 11:16:56;;;;;;;3.90;3.50;;;;;;;;;;4993498;28;20057;-65
2022/04/27 11:19:33;;;;;;;3.67;3.38;;;;;;;;;;5010711;28;20053;-64
2022/04/27 11:22:15;;;;;;;4.03;3.63;;;;;;;;;;4993488;28;20136;-64
2022/04/27 11:24:45;;;;;;;5.28;3.53;;;;;;;;;;5010962;28;20145;-65
2022/04/27 11:27:12;;;;;;;4.68;3.60;;;;;;;;;;4977966;28;20053;-64
2022/04/27 11:29:39;;;;;;;4.18;3.28;;;;;;;;;;4977374;28;20050;-64
2022/04/27 11:32:07;;;;;;;4.15;3.75;;;;;;;;;;4992878;28;20049;-66
2022/04/27 11:34:34;;;;;;;4.65;3.30;;;;;;;;;;5025661;28;20492;-66
2022/04/27 11:37:21;;;;;;;3.65;3.35;;;;;;;;;;5021454;28;20073;-66
2022/04/27 11:39:49;;;;;;;5.35;3.25;;;;;;;;;;5011735;28;20049;-65
2022/04/27 11:42:17;;;;;;;3.75;3.45;;;;;;;;;;5009497;28;20049;-65
2022/04/27 11:44:58;;;;;;;3.97;3.58;;;;;;;;;;5010304;28;20134;-66
2022/04/27 11:47:32;;;;;;;4.28;3.70;;;;;;;;;;5004411;28;20041;-66
2022/04/27 11:50:03;;;;;;;3.58;3.28;;;;;;;;;;5002713;28;20555;-66
2022/04/27 11:52:31;;;;;;;3.90;3.50;;;;;;;;;;5009601;28;20041;-66
2022/04/27 11:55:02;;;;;;;3.67;3.28;;;;;;;;;;4994358;28;20141;-66
2022/04/27 11:57:29;;;;;;;3.50;3.15;;;;;;;;;;5019154;28;20050;-66
2022/04/27 11:59:57;;;;;;;5.30;4.22;;;;;;;;;;5023930;28;20064;-66
2022/04/27 12:02:33;;;;;;;4.47;4.07;;;;;;;;;;5023809;28;20432;-66
2022/04/27 12:05:02;;;;;;;6.47;4.10;;;;;;;;;;5001997;28;20049;-66
2022/04/27 12:07:38;;;;;;;4.22;3.78;;;;;;;;;;4994264;28;20104;-66
2022/04/27 12:10:09;;;;;;;3.80;3.40;;;;;;;;;;5025336;28;20136;-66
2022/04/27 12:12:39;;;;;;;4.47;3.63;;;;;;;;;;5004435;28;20073;-66
2022/04/27 12:15:08;;;;;;;4.28;3.45;;;;;;;;;;5023388;28;20128;-66
2022/04/27 12:17:48;;;;;;;4.00;3.60;;;;;;;;;;5009545;28;20057;-66
2022/04/27 12:20:34;;;;;;;4.05;3.72;;;;;;;;;;5020355;28;20499;-66
2022/04/27 12:23:02;;;;;;;5.38;4.05;;;;;;;;;;5008181;28;20069;-67
2022/04/27 12:25:36;;;;;;;4.47;3.40;;;;;;;;;;5023166;28;20045;-66
2022/04/27 12:28:05;;;;;;;4.10;3.70;;;;;;;;;;5024552;28;20046;-67
2022/04/27 12:30:51;;;;;;;3.45;3.15;;;;;;;;;;4989104;28;20057;-66
2022/04/27 12:33:25;;;;;;;4.07;3.72;;;;;;;;;;5026495;28;20069;-67
2022/04/27 12:39:06;;;;;;;5.95;3.80;;;;;;;;;;5010816;28;20061;-67
2022/04/27 12:41:44;;;;;;;4.63;3.17;;;;;;;;;;5008943;28;20050;-67
2022/04/27 12:44:19;;;;;;;3.83;3.42;;;;;;;;;;5004834;28;20045;-67
2022/04/27 12:46:57;;;;;;;3.72;3.40;;;;;;;;;;5021990;28;20081;-67
2022/04/27 12:49:35;;;;;;;3.53;3.22;;;;;;;;;;5024277;28;20052;-67
2022/04/27 12:52:36;;;;;;;3.90;3.53;;;;;;;;;;5025027;28;20053;-67
2022/04/27 12:55:03;;;;;;;3.92;3.58;;;;;;;;;;4997275;28;20054;-67
2022/04/27 12:57:47;;;;;;;3.75;3.40;;;;;;;;;;5003291;28;20445;-67
2022/04/27 13:00:15;;;;;;;3.40;3.10;;;;;;;;;;5024356;28;20076;-67
2022/04/27 13:02:42;;;;;;;3.38;3.08;;;;;;;;;;5021768;28;20053;-67
2022/04/27 13:05:08;;;;;;;3.20;2.90;;;;;;;;;;5023433;28;20050;-67
2022/04/27 13:07:35;;;;;;;4.60;3.60;;;;;;;;;;5005249;28;20060;-67
2022/04/27 13:12:49;;;;;;;3.47;3.10;;;;;;;;;;5008575;28;20057;-67
2022/04/27 13:15:16;;;;;;;4.18;3.78;;;;;;;;;;5004274;28;20061;-67
2022/04/27 13:17:43;;;;;;;4.10;3.80;;;;;;;;;;5020732;28;20045;-67
2022/04/27 13:20:09;;;;;;;4.82;3.63;;;;;;;;;;5022270;28;20099;-67
2022/04/27 13:22:37;;;;;;;4.30;3.97;;;;;;;;;;5019993;28;20042;-67
2022/04/27 13:25:04;;;;;;;3.92;3.55;;;;;;;;;;4997579;28;20041;-67
2022/04/27 13:27:31;;;;;;;3.22;2.92;;;;;;;;;;5007798;28;20053;-66
2022/04/27 13:30:05;;;;;;;3.20;3.00;;;;;;;;;;4991757;28;20125;-66
2022/04/27 13:32:31;;;;;;;3.45;3.15;;;;;;;;;;5021717;28;20057;-65
2022/04/27 13:34:58;;;;;;;3.30;3.00;;;;;;;;;;5023399;28;20057;-67
2022/04/27 13:37:25;;;;;;;3.60;3.05;;;;;;;;;;5003061;28;20053;-66
2022/04/27 13:39:53;;;;;;;6.90;3.47;;;;;;;;;;5006411;28;20049;-65
2022/04/27 13:42:20;;;;;;;4.95;3.38;;;;;;;;;;5020984;28;20084;-65
2022/04/27 13:44:46;;;;;;;4.05;3.58;;;;;;;;;;5020573;28;20160;-66
2022/04/27 13:47:13;;;;;;;4.00;3.60;;;;;;;;;;5023817;28;20419;-66
2022/04/27 13:50:00;;;;;;;3.85;3.55;;;;;;;;;;5023120;28;20522;-66
2022/04/27 13:52:47;;;;;;;4.32;3.50;;;;;;;;;;5019448;28;20060;-66
2022/04/27 13:55:14;;;;;;;6.18;3.92;;;;;;;;;;5021503;28;20511;-66
2022/04/27 13:57:41;;;;;;;5.45;3.65;;;;;;;;;;5002497;28;20046;-66
2022/04/27 14:00:08;;;;;;;3.85;3.55;;;;;;;;;;5021297;28;20050;-66
2022/04/27 14:02:36;;;;;;;4.05;3.65;;;;;;;;;;5019707;28;20415;-66
2022/04/27 14:05:03;;;;;;;4.00;3.70;;;;;;;;;;5005100;28;20136;-66
2022/04/27 14:07:30;;;;;;;3.58;3.13;;;;;;;;;;5021070;28;20046;-66
2022/04/27 14:09:56;;;;;;;4.05;3.75;;;;;;;;;;5023095;28;20132;-67
2022/04/27 14:15:08;;;;;;;4.30;3.83;;;;;;;;;;5016612;28;20057;-71
2022/04/27 14:20:27;;;;;;;3.80;3.42;;;;;;;;;;5023549;28;20099;-75
2022/04/27 14:22:54;;;;;;;4.68;3.47;;;;;;;;;;5031016;28;20049;-74
2022/04/27 14:25:21;;;;;;;4.38;3.97;;;;;;;;;;5039508;28;20396;-73
2022/04/27 14:27:49;;;;;;;4.13;3.72;;;;;;;;;;5040343;28;20423;-74
2022/04/27 14:30:16;;;;;;;6.82;4.03;;;;;;;;;;5038942;28;20052;-71
2022/04/27 14:32:43;;;;;;;4.97;3.42;;;;;;;;;;5042350;28;20053;-73
2022/04/27 14:35:10;;;;;;;5.40;4.13;;;;;;;;;;5042540;28;20054;-72
2022/04/27 14:37:37;;;;;;;5.00;3.83;;;;;;;;;;5039746;28;20049;-73
2022/04/27 14:40:04;;;;;;;4.85;3.50;;;;;;;;;;5042188;28;20061;-74
2022/04/27 14:42:32;;;;;;;3.85;3.55;;;;;;;;;;5041959;28;20522;-73
2022/04/27 14:44:59;;;;;;;3.88;3.58;;;;;;;;;;5040105;28;20132;-74
2022/04/27 14:47:26;;;;;;;5.60;3.58;;;;;;;;;;5048778;28;20049;-75
2022/04/27 14:49:52;;;;;;;4.13;3.72;;;;;;;;;;5040613;28;20417;-74
2022/04/27 14:52:19;;;;;;;4.20;3.80;;;;;;;;;;5041956;28;20044;-76
2022/04/27 14:54:46;;;;;;;3.38;3.05;;;;;;;;;;5037526;28;20049;-76
2022/04/27 14:57:13;;;;;;;4.15;3.65;;;;;;;;;;5040877;28;20485;-77
2022/04/27 14:59:40;;;;;;;4.95;3.80;;;;;;;;;;5041806;28;20045;-79
2022/04/27 15:02:12;;;;;;;4.72;4.32;;;;;;;;;;5038417;28;20041;-75
2022/04/27 15:04:39;;;;;;;4.50;4.10;;;;;;;;;;5047777;28;20048;-75
2022/04/27 15:07:06;;;;;;;4.35;3.95;;;;;;;;;;5037751;28;20049;-74
2022/04/27 15:10:06;;;;;;;4.57;4.18;;;;;;;;;;5044445;28;20049;-74
2022/04/27 15:12:33;;;;;;;4.25;3.72;;;;;;;;;;5031696;28;20037;-75